createdAt,value
2023-01-12T00:00:12.893Z,78.58
2023-01-12T00:05:12.904Z,79.03
2023-01-12T00:10:12.660Z,78.83
2023-01-12T00:15:12.848Z,79.07
2023-01-12T00:20:12.490Z,79.38
2023-01-12T00:25:15.562Z,79.38
2023-01-12T00:30:12.565Z,79.58
2023-01-12T00:35:12.359Z,78.83
2023-01-12T00:40:12.323Z,76.90
2023-01-12T00:45:12.371Z,76.90
2023-01-12T00:50:12.129Z,76.31
2023-01-12T00:55:13.023Z,75.25
2023-01-12T01:00:12.124Z,75.15
2023-01-12T01:05:12.149Z,76.35
2023-01-12T01:10:11.900Z,76.07
2023-01-12T01:15:11.821Z,76.49
2023-01-12T01:20:11.802Z,76.53
2023-01-12T01:25:14.772Z,76.39
2023-01-12T01:30:11.639Z,76.79
2023-01-12T01:35:11.708Z,75.29
2023-01-12T01:40:11.473Z,75.52
2023-01-12T01:45:11.489Z,75.56
2023-01-12T01:50:11.449Z,74.36
2023-01-12T01:55:11.384Z,74.36
2023-01-12T02:00:11.403Z,73.64
2023-01-12T02:05:11.321Z,72.89
2023-01-12T02:10:11.162Z,72.00
2023-01-12T02:16:29.418Z,71.39
2023-01-12T02:21:29.293Z,71.59
2023-01-12T02:26:29.300Z,71.48
2023-01-12T02:31:29.398Z,71.80
2023-01-12T02:36:29.170Z,70.19
2023-01-12T02:41:28.988Z,71.59
2023-01-12T02:46:29.057Z,71.04
2023-01-12T02:51:28.973Z,70.29
2023-01-12T02:56:28.979Z,70.84
2023-01-12T03:01:28.718Z,70.81
2023-01-12T03:06:33.049Z,71.56
2023-01-12T03:12:45.829Z,71.86
2023-01-12T03:17:53.243Z,71.01
2023-01-12T03:22:45.512Z,71.32
2023-01-12T03:27:45.568Z,71.08
2023-01-12T03:32:45.356Z,71.69
2023-01-12T03:37:45.324Z,70.67
2023-01-12T03:42:45.232Z,71.28
2023-01-12T03:47:45.284Z,70.87
2023-01-12T03:52:45.194Z,71.90
2023-01-12T03:57:45.199Z,71.08
2023-01-12T04:02:48.023Z,71.69
2023-01-12T04:07:44.990Z,73.30
2023-01-12T04:12:46.212Z,70.87
2023-01-12T04:17:45.008Z,71.08
2023-01-12T04:22:45.058Z,70.26
2023-01-12T04:27:44.944Z,70.98
2023-01-12T04:32:44.623Z,70.57
2023-01-12T04:37:44.549Z,70.26
2023-01-12T04:42:44.639Z,71.42
2023-01-12T04:47:44.426Z,70.98
2023-01-12T04:52:44.458Z,70.77
2023-01-12T04:57:44.324Z,72.78
2023-01-12T05:02:47.243Z,71.93
2023-01-12T05:07:44.235Z,73.44
2023-01-12T05:12:44.101Z,71.52
2023-01-12T05:17:44.082Z,72.34
2023-01-12T05:22:45.232Z,71.73
2023-01-12T05:27:43.866Z,72.44
2023-01-12T05:32:43.968Z,72.78
2023-01-12T05:37:44.203Z,72.86
2023-01-12T05:42:43.717Z,72.55
2023-01-12T05:47:43.696Z,72.55
2023-01-12T05:52:43.603Z,72.11
2023-01-12T05:57:43.490Z,72.41
2023-01-12T06:02:46.613Z,71.90
2023-01-12T06:07:43.370Z,73.68
2023-01-12T06:12:43.439Z,71.73
2023-01-12T06:17:43.241Z,71.32
2023-01-12T06:22:43.194Z,71.22
2023-01-12T06:27:43.394Z,71.66
2023-01-12T06:32:43.647Z,70.50
2023-01-12T06:37:43.019Z,70.71
2023-01-12T06:42:42.921Z,71.45
2023-01-12T06:47:42.881Z,70.98
2023-01-12T06:52:42.995Z,70.71
2023-01-12T06:57:42.736Z,70.61
2023-01-12T07:02:45.712Z,68.77
2023-01-12T07:07:42.615Z,71.01
2023-01-12T07:12:42.707Z,70.16
2023-01-12T07:17:42.467Z,70.40
2023-01-12T07:22:42.435Z,70.20
2023-01-12T07:27:42.494Z,70.47
2023-01-12T07:32:42.511Z,69.85
2023-01-12T07:37:42.250Z,70.06
2023-01-12T07:42:42.353Z,69.28
2023-01-12T07:47:42.312Z,69.11
2023-01-12T07:52:42.197Z,69.24
2023-01-12T07:57:42.156Z,69.11
2023-01-12T08:02:45.116Z,68.77
2023-01-12T16:06:42.882Z,69.09
2023-01-12T17:14:21.474Z,73.33
2023-01-12T17:19:21.720Z,73.06
2023-01-12T17:24:20.971Z,72.96
2023-01-12T18:25:40.542Z,75.16
2023-01-12T18:30:37.507Z,74.45
2023-01-12T18:35:37.412Z,74.49
2023-01-12T18:40:37.476Z,73.64
2023-01-12T18:45:37.381Z,73.50
2023-01-12T18:50:37.247Z,73.23
